Time;durP1;ratioP1;P1;durP2;ratioP2;P2;SDS_P1;SDS_P2;PMS_P1;PMS_P2;Temp;Humidity;BMP_temperature;BMP_pressure;BME280_temperature;BME280_humidity;BME280_pressure;Samples;Min_cycle;Max_cycle;Signal;HPM_P1;HPM_P2
2022/03/03 00:00:15;;;;;;;21.43;16.57;;;7.20;49.80;;;10.19;40.92;102241.41;5034562;28;20190;-57
2022/03/03 00:02:44;;;;;;;22.37;17.73;;;7.20;50.40;;;10.20;40.97;102247.50;5033063;28;20285;-58
2022/03/03 00:05:13;;;;;;;24.93;18.20;;;7.20;50.40;;;10.20;41.12;102250.13;5035325;28;20715;-58
2022/03/03 00:07:41;;;;;;;23.13;16.97;;;7.20;50.60;;;10.20;40.93;102247.50;5053037;28;20198;-57
2022/03/03 00:10:10;;;;;;;23.33;17.90;;;7.20;50.70;;;10.17;40.70;102245.16;5054101;28;20204;-57
2022/03/03 00:12:38;;;;;;;21.37;16.83;;;7.20;50.70;;;10.14;41.24;102240.16;5053614;28;20536;-55
2022/03/03 00:15:06;;;;;;;23.27;17.33;;;7.20;50.80;;;10.13;41.21;102234.03;5053778;28;20217;-56
2022/03/03 00:17:33;;;;;;;27.67;17.93;;;7.10;50.70;;;10.13;41.00;102227.94;5034056;28;20214;-57
2022/03/03 00:20:03;;;;;;;23.27;17.47;;;7.10;50.70;;;10.11;41.11;102232.47;5033858;28;20194;-54
2022/03/03 00:22:31;;;;;;;21.73;17.00;;;7.10;50.80;;;10.09;41.30;102232.63;5039957;28;20194;-59
2022/03/03 00:24:58;;;;;;;21.33;17.00;;;7.10;50.80;;;10.10;40.86;102236.09;5053920;28;20214;-54
2022/03/03 00:27:26;;;;;;;24.37;17.93;;;7.10;51.20;;;10.09;41.35;102234.41;5050270;28;20230;-56
2022/03/03 00:29:53;;;;;;;26.70;18.47;;;7.10;51.40;;;10.10;41.63;102236.09;5034329;28;20194;-58
2022/03/03 00:32:21;;;;;;;25.30;17.23;;;7.10;51.60;;;10.10;41.52;102228.22;5035088;28;20200;-59
2022/03/03 00:34:48;;;;;;;22.50;17.27;;;7.10;51.30;;;10.08;41.33;102222.22;5035690;28;20226;-56
2022/03/03 00:37:17;;;;;;;26.33;18.83;;;7.10;51.40;;;10.08;41.29;102222.22;5053912;28;20210;-54
2022/03/03 00:39:45;;;;;;;24.77;18.47;;;7.10;51.50;;;10.05;41.95;102223.34;5058078;28;20210;-52
2022/03/03 00:42:12;;;;;;;23.47;16.30;;;7.10;51.70;;;10.04;41.40;102220.84;5057051;28;20189;-54
2022/03/03 00:44:39;;;;;;;24.57;18.60;;;7.10;51.50;;;10.02;41.85;102222.78;5053927;28;20232;-56
2022/03/03 00:47:07;;;;;;;22.60;17.30;;;7.00;52.00;;;10.00;41.73;102214.19;5037103;28;20688;-59
2022/03/03 00:49:35;;;;;;;26.37;18.27;;;7.00;52.00;;;9.99;41.69;102215.97;5033791;28;20648;-57
2022/03/03 00:52:02;;;;;;;24.00;17.50;;;7.00;51.90;;;10.00;41.76;102214.19;5036109;28;20190;-57
2022/03/03 00:54:31;;;;;;;22.80;17.60;;;7.00;51.80;;;9.97;41.69;102219.72;5052878;28;20223;-58
2022/03/03 00:56:59;;;;;;;27.50;19.73;;;7.00;52.00;;;9.95;42.27;102221.66;5038171;28;20190;-58
2022/03/03 00:59:26;;;;;;;23.70;18.60;;;6.90;52.60;;;9.92;42.53;102217.47;5033254;28;20198;-56
2022/03/03 01:01:53;;;;;;;25.20;18.60;;;6.90;52.60;;;9.91;42.15;102220.25;5033397;28;20678;-55
2022/03/03 01:04:22;;;;;;;25.67;19.77;;;6.90;52.50;;;9.90;42.17;102229.94;5033142;28;20222;-58
2022/03/03 01:06:50;;;;;;;27.03;20.83;;;6.90;52.70;;;9.89;42.76;102230.09;5045516;28;20242;-56
2022/03/03 01:09:17;;;;;;;27.60;18.87;;;6.90;53.00;;;9.85;42.53;102228.66;5052884;28;20648;-55
2022/03/03 01:11:46;;;;;;;26.67;19.33;;;6.90;53.10;;;9.83;42.55;102218.28;5053288;28;20658;-59
2022/03/03 01:14:14;;;;;;;24.23;19.10;;;6.90;53.30;;;9.84;42.62;102229.66;5052588;28;20578;-57
2022/03/03 01:16:41;;;;;;;26.93;19.43;;;6.90;53.20;;;9.85;42.70;102226.03;5040983;28;20199;-56
2022/03/03 01:19:08;;;;;;;27.60;19.17;;;6.90;53.40;;;9.85;43.21;102231.28;5033142;28;20573;-57
2022/03/03 01:21:36;;;;;;;26.17;18.90;;;6.90;53.40;;;9.85;42.95;102223.41;5033051;28;20240;-57
2022/03/03 01:24:04;;;;;;;23.13;17.07;;;6.90;53.10;;;9.84;42.57;102224.38;5051954;28;20223;-57
2022/03/03 01:26:31;;;;;;;27.83;19.27;;;6.90;53.00;;;9.82;42.84;102221.03;5042631;28;20225;-57
2022/03/03 01:29:00;;;;;;;26.97;18.20;;;6.90;53.50;;;9.78;42.74;102220.47;5032931;28;20190;-58
2022/03/03 01:31:27;;;;;;;29.20;19.90;;;6.90;53.00;;;9.74;42.74;102220.88;5033266;28;20193;-57
2022/03/03 01:33:55;;;;;;;27.67;18.90;;;6.80;53.30;;;9.71;43.02;102226.41;5032609;28;20213;-57
2022/03/03 01:36:22;;;;;;;28.13;20.30;;;6.80;53.20;;;9.66;43.32;102218.91;5031654;28;20198;-56
2022/03/03 01:38:52;;;;;;;27.00;20.27;;;6.70;54.10;;;9.66;43.37;102231.22;5032910;28;20211;-56
2022/03/03 01:41:19;;;;;;;27.53;20.13;;;6.70;54.00;;;9.60;43.28;102227.34;5032935;28;20874;-57
2022/03/03 01:43:47;;;;;;;25.30;19.10;;;6.70;54.00;;;9.58;43.07;102210.03;5032397;28;20680;-57
2022/03/03 01:46:16;;;;;;;25.23;18.80;;;6.60;53.60;;;9.55;43.16;102204.03;5040336;28;20219;-57
2022/03/03 01:48:44;;;;;;;28.73;20.60;;;6.60;53.80;;;9.54;43.86;102210.28;5052740;28;20186;-57
2022/03/03 01:51:12;;;;;;;26.60;18.73;;;6.60;53.90;;;9.51;43.62;102218.41;5052873;28;20194;-55
2022/03/03 01:53:40;;;;;;;29.67;21.47;;;6.60;54.00;;;9.49;43.76;102217.72;5051076;28;20215;-57
2022/03/03 01:56:08;;;;;;;29.53;20.83;;;6.50;54.80;;;9.50;44.20;102208.88;5049786;28;20222;-54
2022/03/03 01:58:38;;;;;;;33.13;21.63;;;6.60;55.00;;;9.51;44.41;102207.06;5035744;28;20241;-53
2022/03/03 02:01:06;;;;;;;29.43;20.23;;;6.60;55.00;;;9.49;43.58;102209.84;5035529;28;20187;-55
2022/03/03 02:03:35;;;;;;;31.23;21.50;;;6.60;54.90;;;9.49;44.12;102216.88;5036112;28;20238;-56
2022/03/03 02:06:02;;;;;;;31.47;21.63;;;6.60;54.80;;;9.44;44.21;102216.44;5040751;28;20196;-58
2022/03/03 02:08:30;;;;;;;29.50;21.30;;;6.60;54.90;;;9.42;44.48;102213.97;5056338;28;20566;-53
2022/03/03 02:10:57;;;;;;;30.07;21.30;;;6.60;54.90;;;9.40;44.36;102213.25;5056366;28;20675;-56
2022/03/03 02:13:25;;;;;;;31.17;21.50;;;6.60;55.20;;;9.41;44.48;102206.22;5055938;28;20196;-54
2022/03/03 02:15:54;;;;;;;31.37;20.93;;;6.60;55.10;;;9.39;44.33;102205.47;5051180;28;20226;-55
2022/03/03 02:18:23;;;;;;;27.93;19.43;;;6.50;54.90;;;9.36;44.58;102203.97;5036302;28;20249;-56
2022/03/03 02:20:51;;;;;;;26.33;19.93;;;6.50;54.90;;;9.36;44.59;102198.72;5035005;28;20311;-56
2022/03/03 02:23:19;;;;;;;28.43;21.07;;;6.50;55.30;;;9.37;44.82;102195.13;5048769;28;20194;-54
2022/03/03 02:25:46;;;;;;;30.63;20.63;;;6.50;55.40;;;9.40;44.66;102200.13;5052986;28;20191;-56
2022/03/03 02:28:14;;;;;;;28.73;21.10;;;6.50;55.40;;;9.43;44.79;102204.28;5036113;28;20186;-58
2022/03/03 02:30:41;;;;;;;31.60;21.87;;;6.50;55.50;;;9.41;44.46;102209.66;5035932;28;20201;-55
2022/03/03 02:33:09;;;;;;;31.17;22.30;;;6.50;55.30;;;9.39;44.08;102202.84;5035665;28;20191;-53
2022/03/03 02:35:36;;;;;;;34.77;24.77;;;6.50;55.10;;;9.33;43.99;102198.13;5037282;28;20200;-57
2022/03/03 02:38:05;;;;;;;31.70;22.17;;;6.40;55.20;;;9.25;44.10;102201.41;5056130;28;20211;-56
2022/03/03 02:40:32;;;;;;;31.63;21.20;;;6.20;55.50;;;9.16;44.86;102199.56;5056022;28;20196;-57
2022/03/03 02:42:59;;;;;;;34.23;22.23;;;6.20;56.10;;;9.12;44.68;102194.72;5055545;28;20182;-57
2022/03/03 02:45:27;;;;;;;32.77;23.60;;;6.10;55.90;;;9.07;44.70;102195.09;5055710;28;20230;-55
2022/03/03 02:47:54;;;;;;;33.33;23.77;;;6.10;56.20;;;8.99;44.58;102197.50;5036003;28;20186;-56
2022/03/03 02:50:25;;;;;;;34.30;23.57;;;6.00;56.20;;;8.89;43.99;102193.97;5034652;28;20201;-58
2022/03/03 02:52:53;;;;;;;29.87;20.93;;;5.90;56.20;;;8.78;44.54;102194.06;5044656;28;20202;-56
2022/03/03 02:55:21;;;;;;;34.70;24.67;;;5.70;56.80;;;8.68;45.75;102196.59;5055528;28;20218;-54
2022/03/03 02:57:55;;;;;;;39.77;24.73;;;5.70;57.60;;;8.66;46.08;102192.44;5036482;28;20191;-57
2022/03/03 03:00:26;;;;;;;35.30;23.93;;;5.70;57.70;;;8.66;46.02;102193.28;5035432;28;20192;-56
2022/03/03 03:02:55;;;;;;;32.67;22.43;;;5.70;57.50;;;8.64;45.79;102195.19;5035322;28;20196;-56
2022/03/03 03:05:23;;;;;;;35.30;24.20;;;5.70;57.10;;;8.62;46.23;102198.91;5034972;28;20215;-55
2022/03/03 03:07:50;;;;;;;36.20;24.77;;;5.70;57.70;;;8.62;46.30;102201.53;5034318;28;20570;-57
2022/03/03 03:10:18;;;;;;;35.90;24.27;;;5.70;57.90;;;8.61;46.25;102194.59;5035432;28;20198;-57
2022/03/03 03:12:46;;;;;;;34.00;23.90;;;5.70;57.60;;;8.60;46.14;102200.81;5034947;28;20194;-58
2022/03/03 03:15:15;;;;;;;35.23;25.07;;;5.70;57.10;;;8.57;45.99;102203.69;5033812;28;20216;-56
2022/03/03 03:17:42;;;;;;;35.83;24.67;;;5.70;57.20;;;8.53;46.68;102190.00;5050618;28;20202;-57
2022/03/03 03:20:11;;;;;;;35.47;23.90;;;5.60;57.80;;;8.50;46.85;102189.41;5053945;28;20197;-58
2022/03/03 03:22:39;;;;;;;38.73;24.67;;;5.60;57.60;;;8.46;46.67;102190.63;5054396;28;20242;-58
2022/03/03 03:25:09;;;;;;;34.57;23.53;;;5.60;58.10;;;8.43;46.31;102177.75;5054746;28;20206;-55
2022/03/03 03:27:38;;;;;;;34.73;23.83;;;5.50;57.70;;;8.41;46.38;102187.53;5038131;28;20210;-55
2022/03/03 03:30:10;;;;;;;35.67;23.37;;;5.50;57.50;;;8.36;46.44;102181.84;5034600;28;20711;-58
2022/03/03 03:32:38;;;;;;;41.53;26.10;;;5.40;58.00;;;8.35;46.87;102172.28;5034524;28;20211;-56
2022/03/03 03:35:06;;;;;;;35.90;23.53;;;5.40;58.30;;;8.34;46.83;102175.88;5035436;28;20220;-58
2022/03/03 03:37:36;;;;;;;35.47;23.53;;;5.40;58.20;;;8.32;46.74;102170.75;5050977;28;20201;-55
2022/03/03 03:40:07;;;;;;;39.73;25.33;;;5.40;58.20;;;8.31;47.05;102160.38;5054404;28;20214;-56
2022/03/03 03:42:35;;;;;;;35.20;24.47;;;5.30;58.40;;;8.32;47.13;102156.81;5053976;28;20196;-56
2022/03/03 03:45:04;;;;;;;33.03;23.40;;;5.40;58.60;;;8.33;46.97;102153.22;5054426;28;20218;-55
2022/03/03 03:47:33;;;;;;;37.33;23.73;;;5.40;58.60;;;8.34;47.03;102144.41;5038569;28;20198;-56
2022/03/03 03:50:02;;;;;;;38.53;25.40;;;5.40;59.10;;;8.33;47.42;102153.22;5034493;28;20183;-55
2022/03/03 03:52:30;;;;;;;41.77;25.57;;;5.30;59.10;;;8.31;47.45;102160.38;5040152;28;20572;-54
2022/03/03 03:54:57;;;;;;;36.87;25.53;;;5.30;59.10;;;8.29;47.82;102157.91;5054248;28;20676;-55
2022/03/03 03:57:25;;;;;;;39.73;27.10;;;5.40;59.30;;;8.30;47.96;102169.19;5039472;28;20198;-54
2022/03/03 03:59:52;;;;;;;37.07;24.83;;;5.40;59.60;;;8.31;47.84;102166.47;5034510;28;20381;-57
2022/03/03 04:02:20;;;;;;;39.00;24.60;;;5.40;59.40;;;8.33;48.00;102156.69;5034570;28;20274;-59
2022/03/03 04:04:49;;;;;;;37.00;24.47;;;5.50;59.20;;;8.38;47.95;102153.69;5034331;28;20233;-55
2022/03/03 04:07:16;;;;;;;40.93;25.80;;;5.50;59.60;;;8.40;47.60;102154.38;5046858;28;20195;-55
2022/03/03 04:09:44;;;;;;;34.37;23.70;;;5.50;59.20;;;8.40;47.12;102151.75;5052859;28;20206;-57
2022/03/03 04:12:11;;;;;;;39.23;25.80;;;5.50;58.70;;;8.38;47.46;102151.06;5053794;28;20191;-55
2022/03/03 04:14:39;;;;;;;37.03;25.50;;;5.50;58.90;;;8.32;47.50;102136.66;5052690;28;20306;-56
2022/03/03 04:17:07;;;;;;;41.97;28.10;;;5.40;59.10;;;8.28;47.50;102139.66;5041584;28;20539;-55
2022/03/03 04:19:34;;;;;;;41.23;27.27;;;5.40;59.00;;;8.23;47.60;102132.13;5033233;28;20214;-54
2022/03/03 04:22:03;;;;;;;38.87;25.57;;;5.30;59.10;;;8.20;47.89;102127.97;5036317;28;20196;-56
2022/03/03 04:24:30;;;;;;;38.97;26.47;;;5.30;59.40;;;8.22;48.29;102140.13;5051971;28;20227;-56
2022/03/03 04:26:58;;;;;;;38.93;26.20;;;5.30;59.80;;;8.24;48.17;102143.44;5043631;28;20200;-57
2022/03/03 04:29:25;;;;;;;44.87;28.23;;;5.30;59.80;;;8.25;47.93;102139.88;5034295;28;20214;-56
2022/03/03 04:31:54;;;;;;;40.23;27.17;;;5.30;59.40;;;8.23;48.03;102142.59;5033412;28;20205;-55
2022/03/03 04:34:21;;;;;;;39.40;26.70;;;5.30;59.50;;;8.23;48.25;102136.53;5033886;28;20676;-54
2022/03/03 04:36:48;;;;;;;38.73;25.83;;;5.30;59.70;;;8.22;47.93;102135.72;5042658;28;20191;-53
2022/03/03 04:39:17;;;;;;;39.13;27.53;;;5.30;59.30;;;8.22;48.10;102140.13;5057894;28;20237;-54
2022/03/03 04:41:44;;;;;;;37.87;25.83;;;5.30;59.50;;;8.19;47.86;102138.59;5057755;28;20194;-55
2022/03/03 04:44:12;;;;;;;38.43;24.60;;;5.30;59.30;;;8.17;47.84;102133.47;5058033;28;20581;-53
2022/03/03 04:46:39;;;;;;;40.20;26.03;;;5.30;59.20;;;8.14;47.69;102131.09;5057738;28;20190;-52
2022/03/03 04:49:07;;;;;;;44.60;27.60;;;5.20;59.70;;;8.10;47.99;102137.56;5059951;28;20266;-53
2022/03/03 04:51:36;;;;;;;41.47;27.03;;;5.20;60.10;;;8.08;47.94;102136.00;5053041;28;20298;-56
2022/03/03 04:54:06;;;;;;;42.63;27.27;;;5.20;59.70;;;8.03;48.06;102136.34;5052694;28;20246;-56
2022/03/03 04:56:37;;;;;;;45.27;28.67;;;5.10;59.80;;;7.97;48.21;102144.72;5046127;28;20205;-54
2022/03/03 04:59:05;;;;;;;45.37;28.27;;;5.10;59.90;;;7.92;48.77;102153.91;5032957;28;20218;-56
2022/03/03 05:01:33;;;;;;;42.63;27.97;;;5.00;60.40;;;7.90;48.65;102156.66;5033266;28;20191;-55
2022/03/03 05:04:00;;;;;;;44.63;28.77;;;5.00;60.60;;;7.90;48.60;102161.91;5032826;28;20218;-57
2022/03/03 05:06:28;;;;;;;38.10;25.90;;;5.00;60.70;;;7.91;48.68;102158.34;5037472;28;20662;-56
2022/03/03 05:08:55;;;;;;;43.87;28.90;;;5.00;60.00;;;7.91;48.77;102145.22;5051533;28;20591;-57
2022/03/03 05:11:23;;;;;;;41.70;27.87;;;5.00;60.40;;;7.93;49.02;102145.94;5052690;28;20195;-57
2022/03/03 05:13:52;;;;;;;41.47;26.63;;;5.00;60.80;;;7.93;48.67;102153.78;5052293;28;20288;-58
2022/03/03 05:16:19;;;;;;;41.83;27.53;;;5.00;60.50;;;7.95;48.42;102153.66;5048157;28;20204;-56
2022/03/03 05:18:46;;;;;;;42.93;28.03;;;5.10;60.40;;;7.94;49.00;102158.06;5032729;28;20211;-57
2022/03/03 05:21:14;;;;;;;42.20;27.77;;;5.10;60.60;;;7.93;48.76;102151.16;5032840;28;20201;-53
2022/03/03 05:23:41;;;;;;;46.27;29.77;;;5.10;60.50;;;7.92;48.75;102157.34;5048479;28;20246;-57
2022/03/03 05:26:09;;;;;;;45.13;27.97;;;5.00;60.60;;;7.90;48.45;102151.41;5051453;28;20646;-57
2022/03/03 05:28:36;;;;;;;44.53;29.10;;;5.00;60.40;;;7.87;48.88;102145.56;5033705;28;20194;-57
2022/03/03 05:31:05;;;;;;;44.17;29.80;;;5.00;60.60;;;7.85;48.47;102137.84;5036138;28;20194;-57
2022/03/03 05:33:34;;;;;;;45.50;29.43;;;5.00;60.60;;;7.83;48.58;102142.38;5036702;28;20317;-55
2022/03/03 05:36:06;;;;;;;42.40;28.43;;;4.90;60.80;;;7.80;48.63;102134.75;5037237;28;20201;-55
2022/03/03 05:38:34;;;;;;;41.93;28.97;;;4.90;60.70;;;7.80;48.55;102131.28;5056650;28;20277;-54
2022/03/03 05:41:04;;;;;;;45.60;29.77;;;4.90;60.70;;;7.77;48.75;102129.78;5055074;28;20204;-55
2022/03/03 05:43:32;;;;;;;49.37;30.00;;;4.80;60.80;;;7.74;49.20;102130.00;5056171;28;20558;-53
2022/03/03 05:46:00;;;;;;;48.80;30.13;;;4.80;61.40;;;7.72;49.16;102137.16;5056147;28;20265;-59
2022/03/03 05:48:29;;;;;;;46.57;30.37;;;4.80;61.60;;;7.71;49.40;102139.88;5019336;28;20221;-55
2022/03/03 05:50:57;;;;;;;49.37;30.60;;;4.80;62.20;;;7.69;50.18;102136.56;5036550;28;20286;-56
2022/03/03 05:53:25;;;;;;;47.57;31.53;;;4.70;62.30;;;7.68;49.30;102159.28;5049995;28;20209;-55
2022/03/03 05:55:56;;;;;;;48.93;31.43;;;4.80;61.90;;;7.65;49.69;102148.25;5056532;28;20194;-54
2022/03/03 05:58:40;;;;;;;44.23;29.67;;;4.70;61.90;;;7.62;50.01;102146.69;5071444;28;20273;-54
2022/03/03 06:01:10;;;;;;;50.87;31.80;;;4.70;62.10;;;7.63;49.58;102148.34;5055522;28;20206;-53
2022/03/03 06:03:41;;;;;;;51.53;32.97;;;4.70;62.20;;;7.60;50.18;102143.38;5055866;28;20216;-57
2022/03/03 06:06:15;;;;;;;47.13;31.93;;;4.70;62.50;;;7.59;49.83;102135.59;5054715;28;20268;-54
2022/03/03 06:08:59;;;;;;;47.47;32.00;;;4.70;62.30;;;7.56;49.99;102136.69;5035977;28;20285;-53
2022/03/03 06:11:28;;;;;;;49.50;32.83;;;4.70;62.70;;;7.57;50.18;102148.00;5035974;28;20200;-56
2022/03/03 06:14:07;;;;;;;51.83;32.00;;;4.60;62.50;;;7.51;49.72;102141.47;5035765;28;20206;-56
2022/03/03 06:16:36;;;;;;;47.17;31.43;;;4.60;62.50;;;7.51;50.04;102144.09;5040176;28;20273;-58
2022/03/03 06:19:05;;;;;;;57.80;34.93;;;4.60;62.80;;;7.49;50.57;102145.97;5055047;28;20214;-57
2022/03/03 06:21:32;;;;;;;53.10;32.67;;;4.50;63.10;;;7.47;50.63;102148.72;5055848;28;20502;-57
2022/03/03 06:23:59;;;;;;;50.50;32.43;;;4.50;62.90;;;7.48;50.01;102141.69;5055295;28;20594;-57
2022/03/03 06:26:27;;;;;;;52.03;33.23;;;4.50;63.50;;;7.49;50.70;102145.97;5052317;28;20186;-57
2022/03/03 06:28:54;;;;;;;48.20;31.10;;;4.50;63.70;;;7.49;50.13;102141.56;5034365;28;20194;-53
2022/03/03 06:31:22;;;;;;;53.70;32.27;;;4.50;63.20;;;7.50;50.26;102137.16;5035386;28;20243;-56
2022/03/03 06:33:49;;;;;;;55.30;32.00;;;4.50;63.30;;;7.52;50.78;102140.50;5041874;28;20222;-54
2022/03/03 06:36:18;;;;;;;59.50;33.93;;;4.50;63.50;;;7.55;50.81;102142.03;5055391;28;20615;-57
2022/03/03 06:38:45;;;;;;;50.73;33.70;;;4.50;63.90;;;7.56;50.17;102147.16;5053881;28;20190;-55
2022/03/03 06:41:13;;;;;;;51.40;33.30;;;4.50;63.60;;;7.57;50.55;102156.69;5054193;28;20195;-53
2022/03/03 06:43:41;;;;;;;53.43;33.87;;;4.60;64.10;;;7.60;51.14;102163.47;5053069;28;20689;-57
2022/03/03 06:46:09;;;;;;;53.57;33.77;;;4.60;64.60;;;7.62;50.96;102157.16;5055114;28;20250;-55
2022/03/03 06:48:37;;;;;;;54.37;34.93;;;4.60;64.10;;;7.67;50.71;102155.03;5054706;28;20262;-55
2022/03/03 06:51:05;;;;;;;51.43;32.53;;;4.70;63.90;;;7.70;50.39;102161.81;5069832;28;20199;-54
2022/03/03 06:53:39;;;;;;;52.43;33.20;;;4.70;63.70;;;7.73;50.26;102164.16;5050078;28;20225;-55
2022/03/03 06:56:10;;;;;;;52.77;34.47;;;4.70;63.40;;;7.73;50.11;102144.03;5034961;28;20203;-55
2022/03/03 06:58:39;;;;;;;54.07;33.73;;;4.70;63.40;;;7.74;50.16;102145.72;5035175;28;20235;-56
2022/03/03 07:01:09;;;;;;;53.17;33.33;;;4.70;63.30;;;7.76;49.99;102149.06;5034777;28;20219;-57
2022/03/03 07:03:41;;;;;;;54.53;33.57;;;4.70;63.90;;;7.78;50.36;102152.38;5038923;28;20777;-55
2022/03/03 07:06:08;;;;;;;54.47;34.20;;;4.70;63.80;;;7.82;50.65;102151.16;5054615;28;20621;-55
2022/03/03 07:08:38;;;;;;;56.70;36.10;;;4.80;64.20;;;7.90;50.80;102146.16;5054541;28;20202;-55
2022/03/03 07:11:07;;;;;;;54.87;36.43;;;4.80;64.30;;;7.98;50.77;102138.53;5054740;28;20216;-54
2022/03/03 07:13:36;;;;;;;58.77;36.97;;;4.90;64.60;;;8.10;50.50;102132.31;5054535;28;20218;-57
2022/03/03 07:16:23;;;;;;;52.30;34.60;;;5.00;64.50;;;8.26;50.09;102131.03;5054835;28;20194;-54
2022/03/03 07:18:54;;;;;;;53.57;34.33;;;5.10;64.30;;;8.43;50.02;102127.91;5054826;28;20185;-57
2022/03/03 07:21:36;;;;;;;52.23;33.90;;;5.30;63.80;;;8.58;49.73;102142.41;5055203;28;20187;-57
2022/03/03 07:24:20;;;;;;;52.63;34.27;;;5.40;63.60;;;8.78;49.76;102144.19;5051331;28;20236;-56
2022/03/03 07:26:48;;;;;;;52.03;34.47;;;5.60;63.00;;;9.04;48.82;102148.06;5056283;28;20562;-62
2022/03/03 07:29:24;;;;;;;53.27;34.73;;;5.90;62.90;;;9.33;48.88;102151.69;5058018;28;20200;-53
2022/03/03 07:31:57;;;;;;;56.43;36.30;;;6.10;63.40;;;9.57;48.08;102142.66;5056136;28;20178;-58
2022/03/03 07:34:29;;;;;;;47.93;33.63;;;6.30;61.70;;;9.73;47.36;102138.53;5045713;28;20272;-57
2022/03/03 07:37:04;;;;;;;48.77;33.13;;;6.60;60.90;;;9.82;46.88;102136.91;5036400;28;20248;-57
2022/03/03 07:39:41;;;;;;;53.00;34.83;;;6.70;59.80;;;9.96;47.06;102137.34;5036124;28;20703;-57
2022/03/03 07:42:13;;;;;;;51.20;34.83;;;6.80;59.60;;;10.25;46.80;102124.25;5035267;28;20290;-58
2022/03/03 07:44:41;;;;;;;48.03;33.33;;;6.90;59.10;;;10.57;45.94;102123.97;5034228;28;20234;-56
2022/03/03 07:47:09;;;;;;;48.43;33.03;;;7.20;59.00;;;10.86;45.37;102128.22;5034081;28;20186;-56
2022/03/03 07:49:40;;;;;;;49.17;33.97;;;7.40;58.70;;;11.22;45.19;102131.03;5033483;28;20317;-58
2022/03/03 07:52:08;;;;;;;49.43;34.33;;;7.70;58.20;;;11.59;43.82;102123.94;5035816;28;20383;-57
2022/03/03 07:54:37;;;;;;;46.73;32.77;;;8.00;57.40;;;11.95;43.39;102120.44;5042293;28;20211;-57
2022/03/03 07:57:13;;;;;;;44.87;32.93;;;8.30;56.90;;;12.30;42.68;102119.59;5034473;28;20191;-56
2022/03/03 07:59:46;;;;;;;47.50;33.90;;;8.60;55.80;;;12.66;41.85;102125.66;5032846;28;20268;-58
2022/03/03 08:02:22;;;;;;;57.77;41.27;;;9.00;54.90;;;12.96;41.18;102130.50;5032212;28;20190;-57
2022/03/03 08:04:52;;;;;;;68.37;49.37;;;9.30;54.40;;;13.18;40.65;102127.38;5045633;28;20222;-58
2022/03/03 08:07:20;;;;;;;50.77;35.60;;;9.60;53.40;;;13.29;40.46;102132.38;5053550;28;20558;-59
2022/03/03 08:09:57;;;;;;;48.47;34.33;;;9.80;52.80;;;13.35;39.97;102134.41;5052126;28;20222;-57
2022/03/03 08:12:31;;;;;;;55.30;35.87;;;9.90;52.00;;;13.41;39.38;102139.03;5068603;28;20220;-56
2022/03/03 08:14:59;;;;;;;46.00;34.27;;;10.00;50.10;;;13.49;39.17;102141.72;5052612;28;20256;-55
2022/03/03 08:17:27;;;;;;;46.07;34.40;;;10.00;50.10;;;13.56;39.20;102148.03;5053782;28;20209;-56
2022/03/03 08:19:55;;;;;;;48.30;35.67;;;10.10;50.20;;;13.73;38.76;102145.47;5035451;28;20210;-54
2022/03/03 08:22:24;;;;;;;46.90;33.63;;;10.20;50.10;;;14.04;38.76;102151.84;5052851;28;20233;-55
2022/03/03 08:24:56;;;;;;;46.53;33.53;;;10.30;50.40;;;14.50;38.21;102143.31;5036198;28;21141;-58
2022/03/03 08:27:26;;;;;;;43.90;34.10;;;10.50;50.00;;;14.88;37.43;102161.19;5035662;28;20221;-59
2022/03/03 08:29:54;;;;;;;44.43;34.03;;;10.80;49.70;;;15.23;36.86;102162.63;5041215;28;20256;-58
2022/03/03 08:32:31;;;;;;;43.70;33.57;;;11.10;49.00;;;15.51;36.28;102166.56;5034306;28;20201;-53
2022/03/03 08:35:08;;;;;;;48.30;37.50;;;11.40;48.20;;;15.77;35.83;102176.88;5032337;28;20206;-56
2022/03/03 08:37:39;;;;;;;38.70;30.40;;;11.70;47.30;;;15.97;34.91;102177.28;5032401;28;20210;-57
2022/03/03 08:40:13;;;;;;;34.90;27.97;;;11.90;46.50;;;16.09;34.62;102187.34;5033978;28;20198;-55
2022/03/03 08:42:46;;;;;;;38.13;29.90;;;12.10;45.80;;;16.23;34.35;102197.25;5051809;28;20194;-51
2022/03/03 08:45:16;;;;;;;39.97;29.70;;;12.20;45.30;;;16.43;33.99;102191.44;5041783;28;20230;-54
2022/03/03 08:47:50;;;;;;;37.97;30.10;;;12.30;45.00;;;16.54;33.14;102196.41;5037559;28;20277;-56
2022/03/03 08:50:19;;;;;;;34.70;29.37;;;12.40;44.00;;;16.66;32.51;102205.59;5038582;28;20194;-58
2022/03/03 08:52:56;;;;;;;31.17;26.97;;;12.50;42.80;;;16.72;32.10;102202.22;5040939;28;20205;-55
2022/03/03 08:55:27;;;;;;;32.30;26.43;;;12.60;42.60;;;16.81;32.35;102206.47;5038480;28;20214;-54
2022/03/03 08:57:55;;;;;;;33.30;28.13;;;12.60;42.30;;;16.96;31.82;102207.34;5049065;28;20289;-57
2022/03/03 09:00:23;;;;;;;34.53;29.50;;;12.80;42.20;;;17.24;31.99;102200.41;5052545;28;20485;-55
2022/03/03 09:02:51;;;;;;;36.43;31.23;;;12.90;42.20;;;17.62;30.98;102192.38;5051498;28;20659;-52
2022/03/03 09:05:19;;;;;;;35.20;29.53;;;13.00;41.50;;;18.02;30.59;102190.00;5052261;28;20237;-54
2022/03/03 09:07:47;;;;;;;40.37;32.40;;;13.20;41.40;;;18.50;30.07;102177.84;5034649;28;20257;-54
2022/03/03 09:10:16;;;;;;;34.40;30.60;;;13.50;41.20;;;19.04;29.15;102180.75;5048899;28;20204;-56
2022/03/03 09:12:45;;;;;;;32.87;29.23;;;13.80;40.60;;;19.50;28.78;102181.06;5052343;28;20205;-57
2022/03/03 09:15:13;;;;;;;35.47;31.60;;;14.20;40.40;;;19.93;28.26;102184.34;5038330;28;20569;-55
2022/03/03 09:17:44;;;;;;;35.53;30.67;;;14.40;39.30;;;20.38;27.10;102183.69;5032631;28;20767;-54
2022/03/03 09:20:13;;;;;;;34.03;29.03;;;14.80;38.40;;;20.81;27.17;102184.94;5046956;28;20205;-52
2022/03/03 09:22:43;;;;;;;34.20;29.77;;;15.30;38.50;;;21.29;26.47;102196.25;5056008;28;20193;-56
2022/03/03 09:25:11;;;;;;;41.30;35.57;;;15.60;37.30;;;21.72;25.89;102187.69;5031917;28;20264;-56
2022/03/03 09:27:39;;;;;;;34.57;30.90;;;15.90;36.20;;;22.09;25.30;102192.28;5033571;28;20269;-57
2022/03/03 09:30:10;;;;;;;36.27;31.80;;;16.30;35.80;;;22.51;24.92;102186.22;5047202;28;20200;-57
2022/03/03 09:32:38;;;;;;;33.27;29.67;;;16.60;35.20;;;22.94;24.34;102185.53;5052546;28;20186;-56
2022/03/03 09:35:08;;;;;;;32.60;29.17;;;17.00;34.40;;;23.38;23.83;102185.31;5036954;28;20306;-53
2022/03/03 09:37:35;;;;;;;31.90;28.50;;;17.30;33.70;;;23.79;23.56;102184.63;5034929;28;20589;-56
2022/03/03 09:40:05;;;;;;;29.53;26.57;;;17.70;33.70;;;24.16;23.06;102187.03;5032899;28;20206;-55
2022/03/03 09:42:35;;;;;;;43.23;38.10;;;18.00;32.80;;;24.57;22.38;102183.53;5032637;28;20654;-56
2022/03/03 09:45:04;;;;;;;51.50;40.73;;;18.40;31.90;;;24.89;22.07;102181.34;5033562;28;20214;-54
2022/03/03 09:47:36;;;;;;;39.13;33.47;;;18.70;31.80;;;25.21;21.23;102190.72;5032865;28;20195;-55
2022/03/03 09:50:05;;;;;;;32.83;29.53;;;18.90;30.00;;;25.50;21.33;102178.19;5032504;28;20218;-55
2022/03/03 09:52:34;;;;;;;35.80;32.07;;;19.10;29.50;;;25.79;20.85;102187.97;5038919;28;20276;-56
2022/03/03 09:55:02;;;;;;;34.73;31.03;;;19.30;29.20;;;25.96;20.13;102180.72;5039321;28;20269;-56
2022/03/03 09:57:31;;;;;;;35.37;31.67;;;19.40;28.60;;;26.06;20.41;102180.91;5045038;28;20202;-53
2022/03/03 09:59:59;;;;;;;37.73;33.63;;;19.50;28.70;;;26.19;19.72;102187.94;5039043;28;20199;-55
2022/03/03 10:02:27;;;;;;;781.70;607.10;;;19.60;28.40;;;26.37;20.16;102184.19;5035952;28;20194;-56
2022/03/03 10:04:57;;;;;;;478.27;430.47;;;19.90;28.60;;;26.67;19.40;102180.09;5046185;28;20252;-57
2022/03/03 10:07:28;;;;;;;293.27;265.60;;;20.20;28.30;;;26.84;19.65;102186.38;5039183;28;20187;-58
2022/03/03 10:10:07;;;;;;;827.33;688.47;;;20.30;28.10;;;27.06;19.68;102180.19;5020816;28;20218;-57
2022/03/03 10:12:45;;;;;;;307.93;275.33;;;20.60;27.80;;;27.21;19.32;102181.25;5021620;28;20205;-55
2022/03/03 10:15:14;;;;;;;198.80;177.20;;;20.70;27.60;;;27.47;18.98;102187.84;5036597;28;20222;-57